sensor_id;sensor_type;location;lat;lon;timestamp;P1;durP1;ratioP1;P2;durP2;ratioP2
9597;SDS011;4837;50.890;4.724;2022-12-16T00:00:34;43.10;;;29.90;;
9597;SDS011;4837;50.890;4.724;2022-12-16T00:03:00;44.33;;;29.00;;
9597;SDS011;4837;50.890;4.724;2022-12-16T00:05:27;40.13;;;29.13;;
9597;SDS011;4837;50.890;4.724;2022-12-16T00:07:53;44.63;;;29.30;;
9597;SDS011;4837;50.890;4.724;2022-12-16T00:10:20;47.10;;;29.87;;
9597;SDS011;4837;50.890;4.724;2022-12-16T00:12:46;45.90;;;28.80;;
9597;SDS011;4837;50.890;4.724;2022-12-16T00:15:12;42.67;;;28.07;;
9597;SDS011;4837;50.890;4.724;2022-12-16T00:17:38;47.20;;;29.53;;
9597;SDS011;4837;50.890;4.724;2022-12-16T00:20:04;44.00;;;29.67;;
9597;SDS011;4837;50.890;4.724;2022-12-16T00:22:31;46.30;;;31.23;;
9597;SDS011;4837;50.890;4.724;2022-12-16T00:24:57;46.00;;;30.10;;
9597;SDS011;4837;50.890;4.724;2022-12-16T00:27:23;46.50;;;29.70;;
9597;SDS011;4837;50.890;4.724;2022-12-16T00:29:49;45.60;;;30.17;;
9597;SDS011;4837;50.890;4.724;2022-12-16T00:32:15;44.97;;;30.23;;
9597;SDS011;4837;50.890;4.724;2022-12-16T00:34:41;45.37;;;29.07;;
9597;SDS011;4837;50.890;4.724;2022-12-16T00:37:07;43.40;;;27.97;;
9597;SDS011;4837;50.890;4.724;2022-12-16T00:39:35;47.07;;;30.53;;
9597;SDS011;4837;50.890;4.724;2022-12-16T00:42:01;45.30;;;30.03;;
9597;SDS011;4837;50.890;4.724;2022-12-16T00:44:27;49.37;;;29.03;;
9597;SDS011;4837;50.890;4.724;2022-12-16T00:46:53;42.00;;;29.27;;
9597;SDS011;4837;50.890;4.724;2022-12-16T00:49:19;48.07;;;29.37;;
9597;SDS011;4837;50.890;4.724;2022-12-16T00:51:45;43.40;;;29.17;;
9597;SDS011;4837;50.890;4.724;2022-12-16T00:54:11;44.67;;;29.27;;
9597;SDS011;4837;50.890;4.724;2022-12-16T00:56:37;45.73;;;28.23;;
9597;SDS011;4837;50.890;4.724;2022-12-16T00:59:03;42.27;;;28.30;;
9597;SDS011;4837;50.890;4.724;2022-12-16T01:01:29;43.27;;;28.57;;
9597;SDS011;4837;50.890;4.724;2022-12-16T01:03:55;41.37;;;27.97;;
9597;SDS011;4837;50.890;4.724;2022-12-16T01:06:22;40.10;;;27.43;;
9597;SDS011;4837;50.890;4.724;2022-12-16T01:08:48;43.93;;;27.33;;
9597;SDS011;4837;50.890;4.724;2022-12-16T01:11:15;43.17;;;27.13;;
9597;SDS011;4837;50.890;4.724;2022-12-16T01:13:41;39.60;;;27.43;;
9597;SDS011;4837;50.890;4.724;2022-12-16T01:16:07;46.00;;;29.13;;
9597;SDS011;4837;50.890;4.724;2022-12-16T01:18:33;42.20;;;28.63;;
9597;SDS011;4837;50.890;4.724;2022-12-16T01:21:06;41.83;;;27.80;;
9597;SDS011;4837;50.890;4.724;2022-12-16T01:23:33;43.40;;;28.33;;
9597;SDS011;4837;50.890;4.724;2022-12-16T01:26:00;43.87;;;29.87;;
9597;SDS011;4837;50.890;4.724;2022-12-16T01:28:26;42.23;;;28.93;;
9597;SDS011;4837;50.890;4.724;2022-12-16T01:30:56;40.70;;;27.10;;
9597;SDS011;4837;50.890;4.724;2022-12-16T01:33:26;43.13;;;28.07;;
9597;SDS011;4837;50.890;4.724;2022-12-16T01:36:03;42.03;;;28.10;;
9597;SDS011;4837;50.890;4.724;2022-12-16T01:38:30;41.87;;;27.40;;
9597;SDS011;4837;50.890;4.724;2022-12-16T01:40:56;41.27;;;27.47;;
9597;SDS011;4837;50.890;4.724;2022-12-16T01:43:29;43.17;;;28.50;;
9597;SDS011;4837;50.890;4.724;2022-12-16T01:46:01;42.07;;;28.83;;
9597;SDS011;4837;50.890;4.724;2022-12-16T01:48:33;47.07;;;29.53;;
9597;SDS011;4837;50.890;4.724;2022-12-16T01:51:05;44.27;;;28.77;;
9597;SDS011;4837;50.890;4.724;2022-12-16T01:53:31;43.93;;;29.80;;
9597;SDS011;4837;50.890;4.724;2022-12-16T01:55:58;41.47;;;29.03;;
9597;SDS011;4837;50.890;4.724;2022-12-16T01:58:26;42.23;;;28.67;;
9597;SDS011;4837;50.890;4.724;2022-12-16T02:00:52;43.43;;;28.60;;
9597;SDS011;4837;50.890;4.724;2022-12-16T02:03:18;40.97;;;29.20;;
9597;SDS011;4837;50.890;4.724;2022-12-16T02:05:45;40.27;;;28.43;;
9597;SDS011;4837;50.890;4.724;2022-12-16T02:08:12;40.57;;;27.70;;
9597;SDS011;4837;50.890;4.724;2022-12-16T02:15:41;41.23;;;28.23;;
9597;SDS011;4837;50.890;4.724;2022-12-16T02:36:26;43.83;;;28.33;;
9597;SDS011;4837;50.890;4.724;2022-12-16T02:41:22;42.77;;;28.33;;
9597;SDS011;4837;50.890;4.724;2022-12-16T02:46:16;43.47;;;29.87;;
9597;SDS011;4837;50.890;4.724;2022-12-16T02:48:44;44.40;;;28.80;;
9597;SDS011;4837;50.890;4.724;2022-12-16T02:51:10;40.53;;;28.33;;
9597;SDS011;4837;50.890;4.724;2022-12-16T02:53:37;38.83;;;27.50;;
9597;SDS011;4837;50.890;4.724;2022-12-16T03:06:00;43.03;;;29.10;;
9597;SDS011;4837;50.890;4.724;2022-12-16T03:08:31;43.00;;;29.37;;
9597;SDS011;4837;50.890;4.724;2022-12-16T03:11:02;43.00;;;29.90;;
9597;SDS011;4837;50.890;4.724;2022-12-16T03:13:30;41.47;;;29.53;;
9597;SDS011;4837;50.890;4.724;2022-12-16T03:15:57;42.63;;;30.13;;
9597;SDS011;4837;50.890;4.724;2022-12-16T03:18:26;42.40;;;29.70;;
9597;SDS011;4837;50.890;4.724;2022-12-16T03:21:10;41.90;;;29.93;;
9597;SDS011;4837;50.890;4.724;2022-12-16T03:23:40;48.00;;;30.43;;
9597;SDS011;4837;50.890;4.724;2022-12-16T03:26:11;43.40;;;30.47;;
9597;SDS011;4837;50.890;4.724;2022-12-16T03:28:48;43.73;;;29.70;;
9597;SDS011;4837;50.890;4.724;2022-12-16T03:31:18;40.03;;;28.73;;
9597;SDS011;4837;50.890;4.724;2022-12-16T03:33:54;39.70;;;28.73;;
9597;SDS011;4837;50.890;4.724;2022-12-16T03:36:21;41.27;;;28.03;;
9597;SDS011;4837;50.890;4.724;2022-12-16T03:38:49;40.83;;;28.93;;
9597;SDS011;4837;50.890;4.724;2022-12-16T03:41:16;41.73;;;28.63;;
9597;SDS011;4837;50.890;4.724;2022-12-16T03:43:44;41.07;;;28.93;;
9597;SDS011;4837;50.890;4.724;2022-12-16T03:46:12;41.87;;;30.73;;
9597;SDS011;4837;50.890;4.724;2022-12-16T03:48:49;42.13;;;29.60;;
9597;SDS011;4837;50.890;4.724;2022-12-16T03:51:16;41.90;;;29.80;;
9597;SDS011;4837;50.890;4.724;2022-12-16T03:53:42;43.90;;;29.37;;
9597;SDS011;4837;50.890;4.724;2022-12-16T03:56:08;43.83;;;30.20;;
9597;SDS011;4837;50.890;4.724;2022-12-16T03:58:35;44.73;;;30.67;;
9597;SDS011;4837;50.890;4.724;2022-12-16T04:01:04;40.47;;;30.23;;
9597;SDS011;4837;50.890;4.724;2022-12-16T04:03:30;47.07;;;30.20;;
9597;SDS011;4837;50.890;4.724;2022-12-16T04:05:56;42.77;;;30.13;;
9597;SDS011;4837;50.890;4.724;2022-12-16T04:08:22;41.83;;;29.17;;
9597;SDS011;4837;50.890;4.724;2022-12-16T04:10:51;42.67;;;30.00;;
9597;SDS011;4837;50.890;4.724;2022-12-16T04:13:36;43.33;;;29.33;;
9597;SDS011;4837;50.890;4.724;2022-12-16T04:16:20;46.23;;;31.37;;
9597;SDS011;4837;50.890;4.724;2022-12-16T04:19:05;43.70;;;30.13;;
9597;SDS011;4837;50.890;4.724;2022-12-16T04:21:51;45.80;;;30.93;;
9597;SDS011;4837;50.890;4.724;2022-12-16T04:24:36;45.70;;;31.33;;
9597;SDS011;4837;50.890;4.724;2022-12-16T04:27:02;41.93;;;29.70;;
9597;SDS011;4837;50.890;4.724;2022-12-16T04:29:47;44.20;;;29.87;;
9597;SDS011;4837;50.890;4.724;2022-12-16T04:32:31;42.73;;;27.50;;
9597;SDS011;4837;50.890;4.724;2022-12-16T04:35:18;42.80;;;29.23;;
9597;SDS011;4837;50.890;4.724;2022-12-16T04:38:03;46.60;;;28.53;;
9597;SDS011;4837;50.890;4.724;2022-12-16T04:40:47;43.77;;;28.37;;
9597;SDS011;4837;50.890;4.724;2022-12-16T04:43:32;45.97;;;29.73;;
9597;SDS011;4837;50.890;4.724;2022-12-16T04:46:16;48.33;;;28.93;;
9597;SDS011;4837;50.890;4.724;2022-12-16T04:49:01;46.33;;;29.97;;
9597;SDS011;4837;50.890;4.724;2022-12-16T04:51:45;52.97;;;30.33;;
9597;SDS011;4837;50.890;4.724;2022-12-16T04:54:30;50.40;;;30.13;;
9597;SDS011;4837;50.890;4.724;2022-12-16T04:57:15;56.57;;;31.90;;
9597;SDS011;4837;50.890;4.724;2022-12-16T04:59:59;59.63;;;31.37;;
9597;SDS011;4837;50.890;4.724;2022-12-16T05:02:46;55.10;;;30.07;;
9597;SDS011;4837;50.890;4.724;2022-12-16T05:05:31;51.90;;;31.30;;
9597;SDS011;4837;50.890;4.724;2022-12-16T05:08:16;58.37;;;31.73;;
9597;SDS011;4837;50.890;4.724;2022-12-16T05:11:00;58.17;;;31.47;;
9597;SDS011;4837;50.890;4.724;2022-12-16T05:13:45;55.93;;;31.77;;
9597;SDS011;4837;50.890;4.724;2022-12-16T05:16:30;50.70;;;31.30;;
9597;SDS011;4837;50.890;4.724;2022-12-16T05:19:14;50.07;;;30.50;;
9597;SDS011;4837;50.890;4.724;2022-12-16T05:21:59;54.93;;;32.30;;
9597;SDS011;4837;50.890;4.724;2022-12-16T05:24:43;51.87;;;31.20;;
9597;SDS011;4837;50.890;4.724;2022-12-16T05:27:28;48.83;;;30.13;;
9597;SDS011;4837;50.890;4.724;2022-12-16T05:30:13;48.20;;;30.40;;
9597;SDS011;4837;50.890;4.724;2022-12-16T05:32:57;54.43;;;32.17;;
9597;SDS011;4837;50.890;4.724;2022-12-16T05:35:42;50.77;;;30.23;;
9597;SDS011;4837;50.890;4.724;2022-12-16T05:38:27;52.03;;;30.77;;
9597;SDS011;4837;50.890;4.724;2022-12-16T05:41:11;54.90;;;32.57;;
9597;SDS011;4837;50.890;4.724;2022-12-16T05:43:56;60.37;;;32.93;;
9597;SDS011;4837;50.890;4.724;2022-12-16T05:46:40;62.93;;;33.63;;
9597;SDS011;4837;50.890;4.724;2022-12-16T05:49:25;59.50;;;32.77;;
9597;SDS011;4837;50.890;4.724;2022-12-16T05:52:10;60.33;;;33.37;;
9597;SDS011;4837;50.890;4.724;2022-12-16T05:54:54;60.10;;;32.13;;
9597;SDS011;4837;50.890;4.724;2022-12-16T05:57:39;60.30;;;31.57;;
9597;SDS011;4837;50.890;4.724;2022-12-16T06:00:40;61.80;;;32.53;;
9597;SDS011;4837;50.890;4.724;2022-12-16T06:03:25;54.13;;;29.60;;
9597;SDS011;4837;50.890;4.724;2022-12-16T06:06:09;56.87;;;29.40;;
9597;SDS011;4837;50.890;4.724;2022-12-16T06:08:54;61.33;;;30.27;;
9597;SDS011;4837;50.890;4.724;2022-12-16T06:11:39;57.00;;;29.63;;
9597;SDS011;4837;50.890;4.724;2022-12-16T06:14:23;59.87;;;30.60;;
9597;SDS011;4837;50.890;4.724;2022-12-16T06:17:08;64.27;;;31.90;;
9597;SDS011;4837;50.890;4.724;2022-12-16T06:19:52;58.83;;;29.20;;
9597;SDS011;4837;50.890;4.724;2022-12-16T06:22:37;64.03;;;31.60;;
9597;SDS011;4837;50.890;4.724;2022-12-16T06:25:22;60.83;;;29.33;;
9597;SDS011;4837;50.890;4.724;2022-12-16T06:28:06;60.27;;;29.87;;
9597;SDS011;4837;50.890;4.724;2022-12-16T06:30:51;61.70;;;30.57;;
9597;SDS011;4837;50.890;4.724;2022-12-16T06:33:35;63.07;;;30.50;;
9597;SDS011;4837;50.890;4.724;2022-12-16T06:36:20;61.67;;;30.13;;
9597;SDS011;4837;50.890;4.724;2022-12-16T06:39:05;58.43;;;30.57;;
9597;SDS011;4837;50.890;4.724;2022-12-16T06:41:50;60.37;;;29.50;;
9597;SDS011;4837;50.890;4.724;2022-12-16T06:44:35;62.67;;;30.30;;
9597;SDS011;4837;50.890;4.724;2022-12-16T06:47:19;64.73;;;31.23;;
9597;SDS011;4837;50.890;4.724;2022-12-16T06:50:04;55.87;;;31.93;;
9597;SDS011;4837;50.890;4.724;2022-12-16T06:52:49;66.30;;;31.73;;
9597;SDS011;4837;50.890;4.724;2022-12-16T06:55:33;68.20;;;30.57;;
9597;SDS011;4837;50.890;4.724;2022-12-16T06:58:18;69.73;;;31.87;;
9597;SDS011;4837;50.890;4.724;2022-12-16T07:01:02;64.40;;;32.00;;
9597;SDS011;4837;50.890;4.724;2022-12-16T07:03:47;67.30;;;31.30;;
9597;SDS011;4837;50.890;4.724;2022-12-16T07:06:32;66.70;;;32.60;;
9597;SDS011;4837;50.890;4.724;2022-12-16T07:09:16;70.73;;;32.77;;
9597;SDS011;4837;50.890;4.724;2022-12-16T07:12:01;63.10;;;32.03;;
9597;SDS011;4837;50.890;4.724;2022-12-16T07:14:46;59.83;;;32.10;;
9597;SDS011;4837;50.890;4.724;2022-12-16T07:17:38;63.30;;;32.07;;
9597;SDS011;4837;50.890;4.724;2022-12-16T07:20:22;66.93;;;32.67;;
9597;SDS011;4837;50.890;4.724;2022-12-16T07:23:07;72.40;;;33.90;;
9597;SDS011;4837;50.890;4.724;2022-12-16T07:25:51;63.37;;;31.00;;
9597;SDS011;4837;50.890;4.724;2022-12-16T07:28:36;56.87;;;31.07;;
9597;SDS011;4837;50.890;4.724;2022-12-16T07:31:20;58.27;;;28.87;;
9597;SDS011;4837;50.890;4.724;2022-12-16T07:34:05;52.87;;;28.87;;
9597;SDS011;4837;50.890;4.724;2022-12-16T07:36:50;60.70;;;29.37;;
9597;SDS011;4837;50.890;4.724;2022-12-16T07:39:34;62.63;;;30.27;;
9597;SDS011;4837;50.890;4.724;2022-12-16T07:42:19;58.73;;;30.27;;
9597;SDS011;4837;50.890;4.724;2022-12-16T07:45:04;54.87;;;27.90;;
9597;SDS011;4837;50.890;4.724;2022-12-16T07:47:49;51.50;;;28.23;;
9597;SDS011;4837;50.890;4.724;2022-12-16T07:50:35;48.00;;;27.23;;
9597;SDS011;4837;50.890;4.724;2022-12-16T07:53:20;53.87;;;27.37;;
9597;SDS011;4837;50.890;4.724;2022-12-16T07:56:05;51.37;;;27.37;;
9597;SDS011;4837;50.890;4.724;2022-12-16T07:58:50;48.57;;;27.27;;
9597;SDS011;4837;50.890;4.724;2022-12-16T08:01:35;49.47;;;28.77;;
9597;SDS011;4837;50.890;4.724;2022-12-16T08:04:20;53.23;;;28.37;;
9597;SDS011;4837;50.890;4.724;2022-12-16T08:07:04;48.83;;;28.40;;
9597;SDS011;4837;50.890;4.724;2022-12-16T08:09:49;46.73;;;27.60;;
9597;SDS011;4837;50.890;4.724;2022-12-16T08:12:34;48.20;;;27.50;;
9597;SDS011;4837;50.890;4.724;2022-12-16T08:15:18;50.20;;;28.50;;
9597;SDS011;4837;50.890;4.724;2022-12-16T08:18:03;56.53;;;27.83;;
9597;SDS011;4837;50.890;4.724;2022-12-16T08:20:47;46.97;;;27.27;;
9597;SDS011;4837;50.890;4.724;2022-12-16T08:23:32;44.60;;;25.67;;
9597;SDS011;4837;50.890;4.724;2022-12-16T08:26:16;49.33;;;25.83;;
9597;SDS011;4837;50.890;4.724;2022-12-16T08:29:01;46.80;;;25.87;;
9597;SDS011;4837;50.890;4.724;2022-12-16T08:31:46;47.60;;;26.50;;
9597;SDS011;4837;50.890;4.724;2022-12-16T08:34:30;49.93;;;27.17;;
9597;SDS011;4837;50.890;4.724;2022-12-16T08:37:15;47.43;;;27.10;;
9597;SDS011;4837;50.890;4.724;2022-12-16T08:40:00;43.87;;;25.27;;
9597;SDS011;4837;50.890;4.724;2022-12-16T08:42:45;42.57;;;25.67;;
9597;SDS011;4837;50.890;4.724;2022-12-16T08:45:30;47.27;;;26.63;;
9597;SDS011;4837;50.890;4.724;2022-12-16T08:48:14;44.73;;;25.83;;
9597;SDS011;4837;50.890;4.724;2022-12-16T08:51:00;42.37;;;25.83;;
9597;SDS011;4837;50.890;4.724;2022-12-16T08:53:45;42.97;;;25.33;;
9597;SDS011;4837;50.890;4.724;2022-12-16T08:56:30;39.37;;;23.43;;
9597;SDS011;4837;50.890;4.724;2022-12-16T08:59:14;38.90;;;23.30;;
9597;SDS011;4837;50.890;4.724;2022-12-16T09:01:59;38.37;;;23.30;;
9597;SDS011;4837;50.890;4.724;2022-12-16T09:04:44;37.03;;;22.53;;
9597;SDS011;4837;50.890;4.724;2022-12-16T09:07:28;38.93;;;23.43;;
9597;SDS011;4837;50.890;4.724;2022-12-16T09:10:13;42.27;;;22.50;;
9597;SDS011;4837;50.890;4.724;2022-12-16T09:13:08;42.87;;;25.10;;
9597;SDS011;4837;50.890;4.724;2022-12-16T09:15:53;46.60;;;25.17;;
9597;SDS011;4837;50.890;4.724;2022-12-16T09:18:38;44.17;;;24.40;;
9597;SDS011;4837;50.890;4.724;2022-12-16T09:21:22;42.87;;;24.50;;
9597;SDS011;4837;50.890;4.724;2022-12-16T09:24:07;45.53;;;26.43;;
9597;SDS011;4837;50.890;4.724;2022-12-16T09:26:52;45.33;;;26.50;;
9597;SDS011;4837;50.890;4.724;2022-12-16T09:29:36;41.53;;;24.37;;
9597;SDS011;4837;50.890;4.724;2022-12-16T09:32:21;40.07;;;22.77;;
9597;SDS011;4837;50.890;4.724;2022-12-16T09:35:06;41.97;;;23.00;;
9597;SDS011;4837;50.890;4.724;2022-12-16T09:37:51;40.83;;;24.73;;
9597;SDS011;4837;50.890;4.724;2022-12-16T09:40:39;40.93;;;23.27;;
9597;SDS011;4837;50.890;4.724;2022-12-16T09:43:35;41.30;;;24.07;;
9597;SDS011;4837;50.890;4.724;2022-12-16T09:46:31;39.97;;;23.83;;
9597;SDS011;4837;50.890;4.724;2022-12-16T09:52:24;36.77;;;22.40;;
9597;SDS011;4837;50.890;4.724;2022-12-16T09:58:20;38.27;;;23.50;;
9597;SDS011;4837;50.890;4.724;2022-12-16T10:01:08;38.80;;;22.43;;
9597;SDS011;4837;50.890;4.724;2022-12-16T10:03:54;35.50;;;20.80;;
9597;SDS011;4837;50.890;4.724;2022-12-16T10:09:26;36.23;;;22.10;;
9597;SDS011;4837;50.890;4.724;2022-12-16T10:12:15;33.10;;;20.63;;
9597;SDS011;4837;50.890;4.724;2022-12-16T10:18:11;33.23;;;20.17;;
9597;SDS011;4837;50.890;4.724;2022-12-16T10:20:58;34.60;;;20.93;;
9597;SDS011;4837;50.890;4.724;2022-12-16T10:24:01;34.97;;;20.83;;
9597;SDS011;4837;50.890;4.724;2022-12-16T10:30:01;34.03;;;20.30;;
9597;SDS011;4837;50.890;4.724;2022-12-16T10:32:47;29.37;;;19.17;;
9597;SDS011;4837;50.890;4.724;2022-12-16T10:35:38;36.43;;;21.17;;
9597;SDS011;4837;50.890;4.724;2022-12-16T10:41:12;32.80;;;20.23;;
9597;SDS011;4837;50.890;4.724;2022-12-16T10:43:57;32.23;;;19.10;;
9597;SDS011;4837;50.890;4.724;2022-12-16T10:46:41;31.07;;;19.13;;
9597;SDS011;4837;50.890;4.724;2022-12-16T10:49:26;30.70;;;18.47;;
9597;SDS011;4837;50.890;4.724;2022-12-16T10:52:11;30.33;;;19.30;;
9597;SDS011;4837;50.890;4.724;2022-12-16T10:55:45;32.83;;;18.97;;
9597;SDS011;4837;50.890;4.724;2022-12-16T11:00:49;32.77;;;18.50;;
9597;SDS011;4837;50.890;4.724;2022-12-16T11:03:35;30.27;;;19.70;;
9597;SDS011;4837;50.890;4.724;2022-12-16T11:06:36;28.60;;;18.93;;
9597;SDS011;4837;50.890;4.724;2022-12-16T11:09:32;30.60;;;18.30;;
9597;SDS011;4837;50.890;4.724;2022-12-16T11:15:29;28.07;;;18.33;;
9597;SDS011;4837;50.890;4.724;2022-12-16T11:18:16;29.00;;;18.37;;
9597;SDS011;4837;50.890;4.724;2022-12-16T11:27:01;31.77;;;19.47;;
9597;SDS011;4837;50.890;4.724;2022-12-16T11:29:54;29.07;;;18.70;;
9597;SDS011;4837;50.890;4.724;2022-12-16T11:32:40;30.70;;;19.90;;
9597;SDS011;4837;50.890;4.724;2022-12-16T11:35:27;32.73;;;19.20;;
9597;SDS011;4837;50.890;4.724;2022-12-16T11:38:26;31.87;;;18.90;;
9597;SDS011;4837;50.890;4.724;2022-12-16T11:41:21;30.57;;;19.83;;
9597;SDS011;4837;50.890;4.724;2022-12-16T11:44:08;30.07;;;20.23;;
9597;SDS011;4837;50.890;4.724;2022-12-16T11:46:55;32.40;;;20.23;;
9597;SDS011;4837;50.890;4.724;2022-12-16T11:49:40;32.80;;;19.83;;
9597;SDS011;4837;50.890;4.724;2022-12-16T11:52:24;32.70;;;20.90;;
9597;SDS011;4837;50.890;4.724;2022-12-16T11:55:15;34.23;;;21.13;;
9597;SDS011;4837;50.890;4.724;2022-12-16T11:58:05;34.03;;;19.73;;
9597;SDS011;4837;50.890;4.724;2022-12-16T12:00:57;35.47;;;20.67;;
9597;SDS011;4837;50.890;4.724;2022-12-16T12:03:44;33.80;;;21.13;;
9597;SDS011;4837;50.890;4.724;2022-12-16T12:06:36;33.37;;;21.53;;
9597;SDS011;4837;50.890;4.724;2022-12-16T12:09:26;31.27;;;20.27;;
9597;SDS011;4837;50.890;4.724;2022-12-16T12:12:31;30.23;;;20.43;;
9597;SDS011;4837;50.890;4.724;2022-12-16T12:15:18;31.67;;;20.77;;
9597;SDS011;4837;50.890;4.724;2022-12-16T12:21:25;36.20;;;22.53;;
9597;SDS011;4837;50.890;4.724;2022-12-16T12:32:49;37.70;;;23.77;;
9597;SDS011;4837;50.890;4.724;2022-12-16T12:47:03;40.17;;;23.93;;
9597;SDS011;4837;50.890;4.724;2022-12-16T12:49:55;38.30;;;24.73;;
9597;SDS011;4837;50.890;4.724;2022-12-16T12:58:38;36.43;;;23.03;;
9597;SDS011;4837;50.890;4.724;2022-12-16T13:01:25;38.47;;;23.60;;
9597;SDS011;4837;50.890;4.724;2022-12-16T13:04:15;35.40;;;22.20;;
9597;SDS011;4837;50.890;4.724;2022-12-16T13:07:01;35.67;;;22.13;;
9597;SDS011;4837;50.890;4.724;2022-12-16T13:10:09;37.07;;;22.80;;
9597;SDS011;4837;50.890;4.724;2022-12-16T13:13:19;34.33;;;22.33;;
9597;SDS011;4837;50.890;4.724;2022-12-16T13:15:55;33.33;;;21.87;;
9597;SDS011;4837;50.890;4.724;2022-12-16T13:18:40;32.07;;;20.80;;
9597;SDS011;4837;50.890;4.724;2022-12-16T13:27:12;30.20;;;19.87;;
9597;SDS011;4837;50.890;4.724;2022-12-16T13:30:03;31.10;;;20.33;;
9597;SDS011;4837;50.890;4.724;2022-12-16T13:32:53;29.83;;;20.07;;
9597;SDS011;4837;50.890;4.724;2022-12-16T13:35:50;33.20;;;20.57;;
9597;SDS011;4837;50.890;4.724;2022-12-16T13:38:35;30.70;;;19.10;;
9597;SDS011;4837;50.890;4.724;2022-12-16T13:47:56;28.63;;;18.80;;
9597;SDS011;4837;50.890;4.724;2022-12-16T13:50:59;27.83;;;17.50;;
9597;SDS011;4837;50.890;4.724;2022-12-16T13:53:45;26.50;;;16.63;;
9597;SDS011;4837;50.890;4.724;2022-12-16T13:56:42;30.57;;;17.47;;
9597;SDS011;4837;50.890;4.724;2022-12-16T13:59:30;29.20;;;18.23;;
9597;SDS011;4837;50.890;4.724;2022-12-16T14:02:18;27.40;;;17.73;;
9597;SDS011;4837;50.890;4.724;2022-12-16T14:05:07;30.60;;;19.13;;
9597;SDS011;4837;50.890;4.724;2022-12-16T14:07:57;31.07;;;18.30;;
9597;SDS011;4837;50.890;4.724;2022-12-16T14:10:42;26.73;;;16.63;;
9597;SDS011;4837;50.890;4.724;2022-12-16T14:13:39;27.00;;;16.70;;
9597;SDS011;4837;50.890;4.724;2022-12-16T14:22:18;28.90;;;16.53;;
9597;SDS011;4837;50.890;4.724;2022-12-16T14:25:06;24.57;;;15.83;;
9597;SDS011;4837;50.890;4.724;2022-12-16T14:27:51;27.20;;;16.50;;
9597;SDS011;4837;50.890;4.724;2022-12-16T14:30:35;27.57;;;16.17;;
9597;SDS011;4837;50.890;4.724;2022-12-16T14:33:24;30.63;;;15.77;;
9597;SDS011;4837;50.890;4.724;2022-12-16T14:36:23;30.17;;;16.90;;
9597;SDS011;4837;50.890;4.724;2022-12-16T14:39:13;27.10;;;15.93;;
9597;SDS011;4837;50.890;4.724;2022-12-16T14:42:11;23.47;;;16.03;;
9597;SDS011;4837;50.890;4.724;2022-12-16T14:44:58;26.87;;;16.40;;
9597;SDS011;4837;50.890;4.724;2022-12-16T14:47:42;24.87;;;15.43;;
9597;SDS011;4837;50.890;4.724;2022-12-16T14:50:28;29.20;;;16.07;;
9597;SDS011;4837;50.890;4.724;2022-12-16T14:53:14;24.43;;;15.47;;
9597;SDS011;4837;50.890;4.724;2022-12-16T14:56:18;30.13;;;16.07;;
9597;SDS011;4837;50.890;4.724;2022-12-16T14:59:18;27.07;;;14.90;;
9597;SDS011;4837;50.890;4.724;2022-12-16T15:02:13;24.97;;;15.50;;
9597;SDS011;4837;50.890;4.724;2022-12-16T15:05:00;26.10;;;14.40;;
9597;SDS011;4837;50.890;4.724;2022-12-16T15:07:45;23.47;;;13.83;;
9597;SDS011;4837;50.890;4.724;2022-12-16T15:10:30;26.37;;;16.20;;
9597;SDS011;4837;50.890;4.724;2022-12-16T15:13:16;26.37;;;15.83;;
9597;SDS011;4837;50.890;4.724;2022-12-16T15:16:02;26.47;;;15.10;;
9597;SDS011;4837;50.890;4.724;2022-12-16T15:18:48;26.27;;;15.40;;
9597;SDS011;4837;50.890;4.724;2022-12-16T15:21:37;24.23;;;15.83;;
9597;SDS011;4837;50.890;4.724;2022-12-16T15:24:38;23.27;;;14.90;;
9597;SDS011;4837;50.890;4.724;2022-12-16T15:27:24;23.40;;;14.93;;
9597;SDS011;4837;50.890;4.724;2022-12-16T15:33:14;24.33;;;15.47;;
9597;SDS011;4837;50.890;4.724;2022-12-16T15:36:00;23.70;;;15.30;;
9597;SDS011;4837;50.890;4.724;2022-12-16T15:38:45;26.47;;;15.70;;
9597;SDS011;4837;50.890;4.724;2022-12-16T15:41:34;24.57;;;16.00;;
9597;SDS011;4837;50.890;4.724;2022-12-16T15:44:21;53.53;;;29.20;;
9597;SDS011;4837;50.890;4.724;2022-12-16T15:47:19;34.13;;;19.00;;
9597;SDS011;4837;50.890;4.724;2022-12-16T15:50:04;28.37;;;17.43;;
9597;SDS011;4837;50.890;4.724;2022-12-16T15:52:50;25.43;;;15.23;;
9597;SDS011;4837;50.890;4.724;2022-12-16T15:55:36;28.43;;;15.70;;
9597;SDS011;4837;50.890;4.724;2022-12-16T15:58:24;27.23;;;17.57;;
9597;SDS011;4837;50.890;4.724;2022-12-16T16:01:10;34.37;;;19.63;;
9597;SDS011;4837;50.890;4.724;2022-12-16T16:03:55;33.83;;;20.30;;
9597;SDS011;4837;50.890;4.724;2022-12-16T16:06:47;34.73;;;19.30;;
9597;SDS011;4837;50.890;4.724;2022-12-16T16:09:33;30.57;;;18.70;;
9597;SDS011;4837;50.890;4.724;2022-12-16T16:12:18;32.03;;;19.90;;
9597;SDS011;4837;50.890;4.724;2022-12-16T16:15:04;36.40;;;21.57;;
9597;SDS011;4837;50.890;4.724;2022-12-16T16:17:52;39.00;;;22.90;;
9597;SDS011;4837;50.890;4.724;2022-12-16T16:20:37;32.23;;;20.50;;
9597;SDS011;4837;50.890;4.724;2022-12-16T16:23:21;34.00;;;19.83;;
9597;SDS011;4837;50.890;4.724;2022-12-16T16:26:07;33.50;;;19.60;;
9597;SDS011;4837;50.890;4.724;2022-12-16T16:28:53;34.23;;;19.43;;
9597;SDS011;4837;50.890;4.724;2022-12-16T16:31:37;32.03;;;18.83;;
9597;SDS011;4837;50.890;4.724;2022-12-16T16:34:22;33.23;;;19.63;;
9597;SDS011;4837;50.890;4.724;2022-12-16T16:37:13;34.90;;;19.93;;
9597;SDS011;4837;50.890;4.724;2022-12-16T16:39:58;35.13;;;20.73;;
9597;SDS011;4837;50.890;4.724;2022-12-16T16:42:43;34.90;;;20.70;;
9597;SDS011;4837;50.890;4.724;2022-12-16T16:45:28;39.13;;;21.20;;
9597;SDS011;4837;50.890;4.724;2022-12-16T16:48:13;38.87;;;21.97;;
9597;SDS011;4837;50.890;4.724;2022-12-16T16:50:59;39.40;;;23.00;;
9597;SDS011;4837;50.890;4.724;2022-12-16T16:53:44;42.07;;;23.17;;
9597;SDS011;4837;50.890;4.724;2022-12-16T16:56:29;35.93;;;21.67;;
9597;SDS011;4837;50.890;4.724;2022-12-16T16:59:15;38.93;;;21.33;;
9597;SDS011;4837;50.890;4.724;2022-12-16T17:01:59;36.80;;;21.97;;
9597;SDS011;4837;50.890;4.724;2022-12-16T17:04:44;36.47;;;21.90;;
9597;SDS011;4837;50.890;4.724;2022-12-16T17:07:29;38.13;;;21.70;;
9597;SDS011;4837;50.890;4.724;2022-12-16T17:10:13;35.40;;;23.50;;
9597;SDS011;4837;50.890;4.724;2022-12-16T17:12:58;40.87;;;26.17;;
9597;SDS011;4837;50.890;4.724;2022-12-16T17:15:42;40.10;;;27.10;;
9597;SDS011;4837;50.890;4.724;2022-12-16T17:18:27;39.83;;;25.67;;
9597;SDS011;4837;50.890;4.724;2022-12-16T17:21:12;40.93;;;26.40;;
9597;SDS011;4837;50.890;4.724;2022-12-16T17:23:56;43.80;;;28.43;;
9597;SDS011;4837;50.890;4.724;2022-12-16T17:26:41;49.60;;;29.00;;
9597;SDS011;4837;50.890;4.724;2022-12-16T17:29:26;50.40;;;27.83;;
9597;SDS011;4837;50.890;4.724;2022-12-16T17:32:11;52.83;;;28.43;;
9597;SDS011;4837;50.890;4.724;2022-12-16T17:34:56;53.60;;;29.60;;
9597;SDS011;4837;50.890;4.724;2022-12-16T17:37:41;43.97;;;28.43;;
9597;SDS011;4837;50.890;4.724;2022-12-16T17:40:26;47.30;;;28.73;;
9597;SDS011;4837;50.890;4.724;2022-12-16T17:43:11;53.10;;;29.50;;
9597;SDS011;4837;50.890;4.724;2022-12-16T17:48:40;51.77;;;28.17;;
9597;SDS011;4837;50.890;4.724;2022-12-16T17:51:25;53.83;;;29.83;;
9597;SDS011;4837;50.890;4.724;2022-12-16T17:54:10;53.20;;;33.27;;
9597;SDS011;4837;50.890;4.724;2022-12-16T17:56:54;59.03;;;33.10;;
9597;SDS011;4837;50.890;4.724;2022-12-16T17:59:43;56.77;;;31.33;;
9597;SDS011;4837;50.890;4.724;2022-12-16T18:02:28;60.50;;;34.10;;
9597;SDS011;4837;50.890;4.724;2022-12-16T18:05:13;59.47;;;34.63;;
9597;SDS011;4837;50.890;4.724;2022-12-16T18:07:57;56.63;;;33.30;;
9597;SDS011;4837;50.890;4.724;2022-12-16T18:10:42;57.17;;;31.53;;
9597;SDS011;4837;50.890;4.724;2022-12-16T18:13:27;54.97;;;32.23;;
9597;SDS011;4837;50.890;4.724;2022-12-16T18:16:11;58.70;;;33.30;;
9597;SDS011;4837;50.890;4.724;2022-12-16T18:18:56;64.80;;;37.13;;